sensor_id;sensor_type;location;lat;lon;timestamp;pressure;altitude;pressure_sealevel;temperature;humidity
43770;BME280;6597;52.218;9.882;2022-07-23T00:00:56;101021.63;;;15.33;100.00
43770;BME280;6597;52.218;9.882;2022-07-23T00:03:23;101026.94;;;15.33;100.00
43770;BME280;6597;52.218;9.882;2022-07-23T00:05:50;101026.16;;;15.31;100.00
43770;BME280;6597;52.218;9.882;2022-07-23T00:08:16;101019.19;;;15.28;100.00
43770;BME280;6597;52.218;9.882;2022-07-23T00:10:43;101014.84;;;15.27;100.00
43770;BME280;6597;52.218;9.882;2022-07-23T00:13:10;101009.63;;;15.25;100.00
43770;BME280;6597;52.218;9.882;2022-07-23T00:15:38;101015.78;;;15.26;100.00
43770;BME280;6597;52.218;9.882;2022-07-23T00:18:04;101016.63;;;15.26;100.00
43770;BME280;6597;52.218;9.882;2022-07-23T00:20:31;101013.97;;;15.26;100.00
43770;BME280;6597;52.218;9.882;2022-07-23T00:22:58;101012.19;;;15.27;100.00
43770;BME280;6597;52.218;9.882;2022-07-23T00:25:26;101009.41;;;15.30;100.00
43770;BME280;6597;52.218;9.882;2022-07-23T00:27:53;100999.69;;;15.31;100.00
43770;BME280;6597;52.218;9.882;2022-07-23T00:30:19;101005.75;;;15.33;100.00
43770;BME280;6597;52.218;9.882;2022-07-23T00:32:48;101011.06;;;15.33;100.00
43770;BME280;6597;52.218;9.882;2022-07-23T00:35:16;101016.34;;;15.33;100.00
43770;BME280;6597;52.218;9.882;2022-07-23T00:37:42;101013.69;;;15.33;100.00
43770;BME280;6597;52.218;9.882;2022-07-23T00:40:10;101003.19;;;15.31;100.00
43770;BME280;6597;52.218;9.882;2022-07-23T00:42:37;101004.13;;;15.30;100.00
43770;BME280;6597;52.218;9.882;2022-07-23T00:45:05;101015.56;;;15.31;100.00
43770;BME280;6597;52.218;9.882;2022-07-23T00:47:32;101009.41;;;15.30;100.00
43770;BME280;6597;52.218;9.882;2022-07-23T00:50:00;101021.91;;;15.26;100.00
43770;BME280;6597;52.218;9.882;2022-07-23T00:52:28;101022.84;;;15.25;100.00
43770;BME280;6597;52.218;9.882;2022-07-23T00:54:55;101021.22;;;15.23;100.00
43770;BME280;6597;52.218;9.882;2022-07-23T00:57:22;101018.56;;;15.23;100.00
43770;BME280;6597;52.218;9.882;2022-07-23T00:59:48;101025.66;;;15.22;100.00
43770;BME280;6597;52.218;9.882;2022-07-23T01:02:15;101018.66;;;15.21;100.00
43770;BME280;6597;52.218;9.882;2022-07-23T01:04:42;101016.88;;;15.22;100.00
43770;BME280;6597;52.218;9.882;2022-07-23T01:07:10;101017.78;;;15.21;100.00
43770;BME280;6597;52.218;9.882;2022-07-23T01:09:37;101019.50;;;15.22;100.00
43770;BME280;6597;52.218;9.882;2022-07-23T01:12:04;101016.00;;;15.21;100.00
43770;BME280;6597;52.218;9.882;2022-07-23T01:14:32;101006.38;;;15.20;100.00
43770;BME280;6597;52.218;9.882;2022-07-23T01:16:59;101006.38;;;15.20;100.00
43770;BME280;6597;52.218;9.882;2022-07-23T01:19:25;101001.22;;;15.17;100.00
43770;BME280;6597;52.218;9.882;2022-07-23T01:21:53;100993.38;;;15.16;100.00
43770;BME280;6597;52.218;9.882;2022-07-23T01:24:21;100995.16;;;15.15;100.00
43770;BME280;6597;52.218;9.882;2022-07-23T01:26:56;100998.81;;;15.13;100.00
43770;BME280;6597;52.218;9.882;2022-07-23T01:29:23;100990.97;;;15.11;100.00
43770;BME280;6597;52.218;9.882;2022-07-23T01:31:50;100976.13;;;15.09;100.00
43770;BME280;6597;52.218;9.882;2022-07-23T01:34:17;100977.97;;;15.07;100.00
43770;BME280;6597;52.218;9.882;2022-07-23T01:36:43;100965.00;;;15.02;100.00
43770;BME280;6597;52.218;9.882;2022-07-23T01:39:10;100969.59;;;14.99;100.00
43770;BME280;6597;52.218;9.882;2022-07-23T01:41:38;100972.44;;;14.94;100.00
43770;BME280;6597;52.218;9.882;2022-07-23T01:44:05;100979.66;;;14.90;100.00
43770;BME280;6597;52.218;9.882;2022-07-23T01:46:32;100976.47;;;14.84;100.00
43770;BME280;6597;52.218;9.882;2022-07-23T01:49:00;100981.91;;;14.81;100.00
43770;BME280;6597;52.218;9.882;2022-07-23T01:51:45;100980.44;;;14.75;100.00
43770;BME280;6597;52.218;9.882;2022-07-23T01:54:31;100965.50;;;14.74;100.00
43770;BME280;6597;52.218;9.882;2022-07-23T01:57:00;100957.66;;;14.73;100.00
43770;BME280;6597;52.218;9.882;2022-07-23T01:59:28;100971.94;;;14.69;100.00
43770;BME280;6597;52.218;9.882;2022-07-23T02:01:55;100973.81;;;14.67;100.00
43770;BME280;6597;52.218;9.882;2022-07-23T02:04:23;100980.16;;;14.62;100.00
43770;BME280;6597;52.218;9.882;2022-07-23T02:06:50;100978.50;;;14.60;100.00
43770;BME280;6597;52.218;9.882;2022-07-23T02:09:17;100977.81;;;14.56;100.00
43770;BME280;6597;52.218;9.882;2022-07-23T02:11:46;100990.22;;;14.54;100.00
43770;BME280;6597;52.218;9.882;2022-07-23T02:14:14;100980.66;;;14.52;100.00
43770;BME280;6597;52.218;9.882;2022-07-23T02:16:40;100990.31;;;14.53;100.00
43770;BME280;6597;52.218;9.882;2022-07-23T02:19:07;100990.38;;;14.51;100.00
43770;BME280;6597;52.218;9.882;2022-07-23T02:21:36;100972.75;;;14.52;100.00
43770;BME280;6597;52.218;9.882;2022-07-23T02:24:03;100968.25;;;14.54;100.00
43770;BME280;6597;52.218;9.882;2022-07-23T02:26:29;100980.66;;;14.52;100.00
43770;BME280;6597;52.218;9.882;2022-07-23T02:28:59;100974.53;;;14.51;100.00
43770;BME280;6597;52.218;9.882;2022-07-23T02:31:27;100976.31;;;14.51;100.00
43770;BME280;6597;52.218;9.882;2022-07-23T02:33:55;100976.31;;;14.51;100.00
43770;BME280;6597;52.218;9.882;2022-07-23T02:36:23;100981.69;;;14.49;100.00
43770;BME280;6597;52.218;9.882;2022-07-23T02:38:51;100976.47;;;14.48;100.00
43770;BME280;6597;52.218;9.882;2022-07-23T02:41:18;100988.88;;;14.46;100.00
43770;BME280;6597;52.218;9.882;2022-07-23T02:43:45;100990.75;;;14.44;100.00
43770;BME280;6597;52.218;9.882;2022-07-23T02:46:13;101002.44;;;14.38;100.00
43770;BME280;6597;52.218;9.882;2022-07-23T02:48:42;101004.44;;;14.33;100.00
43770;BME280;6597;52.218;9.882;2022-07-23T02:51:08;100987.81;;;14.31;100.00
43770;BME280;6597;52.218;9.882;2022-07-23T02:53:40;100980.78;;;14.30;100.00
43770;BME280;6597;52.218;9.882;2022-07-23T02:56:08;100989.63;;;14.29;100.00
43770;BME280;6597;52.218;9.882;2022-07-23T02:58:34;100983.44;;;14.30;100.00
43770;BME280;6597;52.218;9.882;2022-07-23T03:01:01;100971.91;;;14.32;100.00
43770;BME280;6597;52.218;9.882;2022-07-23T03:03:28;100972.59;;;14.36;100.00
43770;BME280;6597;52.218;9.882;2022-07-23T03:05:56;100965.53;;;14.37;100.00
43770;BME280;6597;52.218;9.882;2022-07-23T03:08:23;100968.03;;;14.40;100.00
43770;BME280;6597;52.218;9.882;2022-07-23T03:10:51;100971.53;;;14.40;100.00
43770;BME280;6597;52.218;9.882;2022-07-23T03:13:18;100977.81;;;14.38;100.00
43770;BME280;6597;52.218;9.882;2022-07-23T03:15:44;100976.88;;;14.39;100.00
43770;BME280;6597;52.218;9.882;2022-07-23T03:18:11;100970.81;;;14.37;100.00
43770;BME280;6597;52.218;9.882;2022-07-23T03:20:37;100965.53;;;14.37;100.00
43770;BME280;6597;52.218;9.882;2022-07-23T03:23:05;100966.47;;;14.36;100.00
43770;BME280;6597;52.218;9.882;2022-07-23T03:25:32;100960.25;;;14.37;100.00
43770;BME280;6597;52.218;9.882;2022-07-23T03:27:59;100965.38;;;14.40;100.00
43770;BME280;6597;52.218;9.882;2022-07-23T03:30:27;100967.94;;;14.41;100.00
43770;BME280;6597;52.218;9.882;2022-07-23T03:32:54;100964.25;;;14.45;100.00
43770;BME280;6597;52.218;9.882;2022-07-23T03:35:20;100949.19;;;14.47;100.00
43770;BME280;6597;52.218;9.882;2022-07-23T03:38:09;100935.91;;;14.49;100.00
43770;BME280;6597;52.218;9.882;2022-07-23T03:40:36;100955.88;;;14.54;100.00
43770;BME280;6597;52.218;9.882;2022-07-23T03:43:03;100959.22;;;14.58;100.00
43770;BME280;6597;52.218;9.882;2022-07-23T03:45:29;100950.38;;;14.59;100.00
43770;BME280;6597;52.218;9.882;2022-07-23T03:47:56;100952.94;;;14.60;100.00
43770;BME280;6597;52.218;9.882;2022-07-23T03:50:23;100947.59;;;14.62;100.00
43770;BME280;6597;52.218;9.882;2022-07-23T03:52:50;100933.44;;;14.63;100.00
43770;BME280;6597;52.218;9.882;2022-07-23T03:55:18;100942.97;;;14.67;100.00
43770;BME280;6597;52.218;9.882;2022-07-23T03:57:45;100946.47;;;14.68;100.00
43770;BME280;6597;52.218;9.882;2022-07-23T04:00:13;100959.59;;;14.69;100.00
43770;BME280;6597;52.218;9.882;2022-07-23T04:02:40;100963.78;;;14.73;100.00
43770;BME280;6597;52.218;9.882;2022-07-23T04:05:09;100961.22;;;14.72;100.00
43770;BME280;6597;52.218;9.882;2022-07-23T04:07:36;100955.94;;;14.72;100.00
43770;BME280;6597;52.218;9.882;2022-07-23T04:10:03;100955.94;;;14.72;100.00
43770;BME280;6597;52.218;9.882;2022-07-23T04:12:31;100947.09;;;14.73;100.00
43770;BME280;6597;52.218;9.882;2022-07-23T04:14:58;100943.44;;;14.75;100.00
43770;BME280;6597;52.218;9.882;2022-07-23T04:17:24;100937.22;;;14.76;100.00
43770;BME280;6597;52.218;9.882;2022-07-23T04:19:51;100944.06;;;14.80;100.00
43770;BME280;6597;52.218;9.882;2022-07-23T04:22:21;100955.16;;;14.87;100.00
43770;BME280;6597;52.218;9.882;2022-07-23T04:24:48;100959.38;;;14.91;100.00
43770;BME280;6597;52.218;9.882;2022-07-23T04:27:15;100953.84;;;14.95;100.00
43770;BME280;6597;52.218;9.882;2022-07-23T04:29:43;100940.50;;;14.99;100.00
43770;BME280;6597;52.218;9.882;2022-07-23T04:32:10;100947.28;;;15.04;100.00
43770;BME280;6597;52.218;9.882;2022-07-23T04:34:37;100942.59;;;15.09;100.00
43770;BME280;6597;52.218;9.882;2022-07-23T04:37:04;100941.44;;;15.15;100.00
43770;BME280;6597;52.218;9.882;2022-07-23T04:39:31;100973.78;;;15.20;100.00
43770;BME280;6597;52.218;9.882;2022-07-23T04:41:58;100976.41;;;15.20;100.00
43770;BME280;6597;52.218;9.882;2022-07-23T04:44:25;100974.56;;;15.22;100.00
43770;BME280;6597;52.218;9.882;2022-07-23T04:46:53;100974.63;;;15.20;100.00
43770;BME280;6597;52.218;9.882;2022-07-23T04:49:19;100969.34;;;15.20;100.00
43770;BME280;6597;52.218;9.882;2022-07-23T04:51:47;100971.13;;;15.20;100.00
43770;BME280;6597;52.218;9.882;2022-07-23T04:54:14;100965.06;;;15.18;100.00
43770;BME280;6597;52.218;9.882;2022-07-23T04:56:43;100971.28;;;15.17;100.00
43770;BME280;6597;52.218;9.882;2022-07-23T04:59:09;100984.50;;;15.17;100.00
43770;BME280;6597;52.218;9.882;2022-07-23T05:01:36;100981.94;;;15.15;100.00
43770;BME280;6597;52.218;9.882;2022-07-23T05:04:04;100975.34;;;15.07;100.00
43770;BME280;6597;52.218;9.882;2022-07-23T05:06:34;100986.63;;;15.10;100.00
43770;BME280;6597;52.218;9.882;2022-07-23T05:09:00;100980.56;;;15.08;100.00
43770;BME280;6597;52.218;9.882;2022-07-23T05:11:28;100975.25;;;15.08;100.00
43770;BME280;6597;52.218;9.882;2022-07-23T05:13:55;100975.25;;;15.08;100.00
43770;BME280;6597;52.218;9.882;2022-07-23T05:16:22;100978.75;;;15.09;100.00
43770;BME280;6597;52.218;9.882;2022-07-23T05:18:50;100977.06;;;15.08;100.00
43770;BME280;6597;52.218;9.882;2022-07-23T05:21:18;100973.41;;;15.10;100.00
43770;BME280;6597;52.218;9.882;2022-07-23T05:23:45;100977.66;;;15.13;100.00
43770;BME280;6597;52.218;9.882;2022-07-23T05:26:12;100977.44;;;15.17;100.00
43770;BME280;6597;52.218;9.882;2022-07-23T05:28:38;100976.03;;;15.27;100.00
43770;BME280;6597;52.218;9.882;2022-07-23T05:31:05;100971.06;;;15.39;100.00
43770;BME280;6597;52.218;9.882;2022-07-23T05:33:32;100960.44;;;15.56;100.00
43770;BME280;6597;52.218;9.882;2022-07-23T05:36:00;100967.78;;;15.68;100.00
43770;BME280;6597;52.218;9.882;2022-07-23T05:38:31;100974.03;;;15.83;100.00
43770;BME280;6597;52.218;9.882;2022-07-23T05:40:59;100981.34;;;15.95;100.00
43770;BME280;6597;52.218;9.882;2022-07-23T05:43:27;100983.16;;;16.10;100.00
43770;BME280;6597;52.218;9.882;2022-07-23T05:45:54;100982.16;;;16.29;100.00
43770;BME280;6597;52.218;9.882;2022-07-23T05:48:21;100973.59;;;16.39;100.00
43770;BME280;6597;52.218;9.882;2022-07-23T05:51:11;100975.56;;;16.52;100.00
43770;BME280;6597;52.218;9.882;2022-07-23T05:53:39;100976.06;;;16.58;100.00
43770;BME280;6597;52.218;9.882;2022-07-23T05:56:13;100985.50;;;16.64;97.70
43770;BME280;6597;52.218;9.882;2022-07-23T05:58:40;100983.56;;;16.67;94.85
43770;BME280;6597;52.218;9.882;2022-07-23T06:01:07;100990.56;;;16.68;94.36
43770;BME280;6597;52.218;9.882;2022-07-23T06:03:43;100985.09;;;16.71;91.44
43770;BME280;6597;52.218;9.882;2022-07-23T06:06:09;100984.41;;;16.68;90.14
43770;BME280;6597;52.218;9.882;2022-07-23T06:08:38;100998.44;;;16.70;91.16
43770;BME280;6597;52.218;9.882;2022-07-23T06:11:07;100995.50;;;16.74;91.32
43770;BME280;6597;52.218;9.882;2022-07-23T06:13:34;100993.53;;;16.78;89.94
43770;BME280;6597;52.218;9.882;2022-07-23T06:16:01;100995.34;;;16.77;90.54
43770;BME280;6597;52.218;9.882;2022-07-23T06:18:29;100996.50;;;16.88;91.33
43770;BME280;6597;52.218;9.882;2022-07-23T06:20:55;100992.13;;;17.02;90.94
43770;BME280;6597;52.218;9.882;2022-07-23T06:23:22;100993.28;;;17.13;89.04
43770;BME280;6597;52.218;9.882;2022-07-23T06:25:50;100997.06;;;17.08;85.91
43770;BME280;6597;52.218;9.882;2022-07-23T06:28:19;100992.59;;;17.25;86.48
43770;BME280;6597;52.218;9.882;2022-07-23T06:30:45;100988.66;;;17.46;85.55
43770;BME280;6597;52.218;9.882;2022-07-23T06:33:12;100990.63;;;17.72;85.50
43770;BME280;6597;52.218;9.882;2022-07-23T06:35:39;100987.88;;;18.02;84.54
43770;BME280;6597;52.218;9.882;2022-07-23T06:38:07;100983.97;;;18.22;80.14
43770;BME280;6597;52.218;9.882;2022-07-23T06:40:33;100987.72;;;18.47;80.76
43770;BME280;6597;52.218;9.882;2022-07-23T06:43:02;101000.63;;;18.67;78.02
43770;BME280;6597;52.218;9.882;2022-07-23T06:45:29;100998.47;;;18.86;75.99
43770;BME280;6597;52.218;9.882;2022-07-23T06:47:55;100987.56;;;19.04;75.47
43770;BME280;6597;52.218;9.882;2022-07-23T06:50:22;101004.88;;;19.23;74.29
43770;BME280;6597;52.218;9.882;2022-07-23T06:52:48;100998.16;;;19.43;72.47
43770;BME280;6597;52.218;9.882;2022-07-23T06:55:15;101001.84;;;19.55;70.75
43770;BME280;6597;52.218;9.882;2022-07-23T06:57:44;101003.78;;;19.66;71.13
43770;BME280;6597;52.218;9.882;2022-07-23T07:00:15;101006.78;;;19.86;70.51
43770;BME280;6597;52.218;9.882;2022-07-23T07:02:41;101007.16;;;20.06;70.08
43770;BME280;6597;52.218;9.882;2022-07-23T07:05:08;101008.09;;;20.30;68.93
43770;BME280;6597;52.218;9.882;2022-07-23T07:07:35;101005.63;;;20.53;68.36
43770;BME280;6597;52.218;9.882;2022-07-23T07:10:02;101005.13;;;20.71;66.61
43770;BME280;6597;52.218;9.882;2022-07-23T07:12:29;101009.00;;;20.91;66.67
43770;BME280;6597;52.218;9.882;2022-07-23T07:14:55;101018.38;;;20.97;65.23
43770;BME280;6597;52.218;9.882;2022-07-23T07:17:24;101016.06;;;21.03;64.23
43770;BME280;6597;52.218;9.882;2022-07-23T07:19:51;101022.16;;;21.05;64.50
43770;BME280;6597;52.218;9.882;2022-07-23T07:22:17;101017.50;;;21.20;64.33
43770;BME280;6597;52.218;9.882;2022-07-23T07:24:44;101017.78;;;21.28;63.44
43770;BME280;6597;52.218;9.882;2022-07-23T07:27:10;101021.09;;;21.32;62.25
43770;BME280;6597;52.218;9.882;2022-07-23T07:29:37;101020.72;;;21.36;62.84
43770;BME280;6597;52.218;9.882;2022-07-23T07:32:05;101016.72;;;21.31;62.70
43770;BME280;6597;52.218;9.882;2022-07-23T07:34:33;101015.63;;;21.33;62.92
43770;BME280;6597;52.218;9.882;2022-07-23T07:37:00;101021.53;;;21.50;62.73
43770;BME280;6597;52.218;9.882;2022-07-23T07:39:26;101034.06;;;21.71;61.80
43770;BME280;6597;52.218;9.882;2022-07-23T07:41:53;101019.75;;;21.84;57.35
43770;BME280;6597;52.218;9.882;2022-07-23T07:44:19;101025.91;;;21.62;59.08
43770;BME280;6597;52.218;9.882;2022-07-23T07:46:46;101028.97;;;21.33;60.83
43770;BME280;6597;52.218;9.882;2022-07-23T07:49:13;101031.88;;;21.30;61.71
43770;BME280;6597;52.218;9.882;2022-07-23T07:51:41;101038.66;;;21.69;58.81
43770;BME280;6597;52.218;9.882;2022-07-23T07:54:07;101025.84;;;21.97;58.02
43770;BME280;6597;52.218;9.882;2022-07-23T07:56:34;101040.59;;;22.14;56.54
43770;BME280;6597;52.218;9.882;2022-07-23T07:59:00;101035.69;;;21.96;57.61
43770;BME280;6597;52.218;9.882;2022-07-23T08:01:27;101034.72;;;21.97;57.67
43770;BME280;6597;52.218;9.882;2022-07-23T08:03:53;101037.63;;;21.94;56.48
43770;BME280;6597;52.218;9.882;2022-07-23T08:06:20;101040.59;;;21.56;55.85
43770;BME280;6597;52.218;9.882;2022-07-23T08:08:48;101041.22;;;21.12;58.78
43770;BME280;6597;52.218;9.882;2022-07-23T08:11:15;101045.09;;;21.08;58.41
43770;BME280;6597;52.218;9.882;2022-07-23T08:13:41;101047.28;;;21.27;58.46
43770;BME280;6597;52.218;9.882;2022-07-23T08:16:09;101056.03;;;21.29;59.42
43770;BME280;6597;52.218;9.882;2022-07-23T08:18:36;101052.69;;;21.14;58.87
43770;BME280;6597;52.218;9.882;2022-07-23T08:21:02;101061.63;;;21.13;59.51
43770;BME280;6597;52.218;9.882;2022-07-23T08:23:31;101041.09;;;21.26;60.67
43770;BME280;6597;52.218;9.882;2022-07-23T08:25:58;101049.00;;;21.74;59.97
43770;BME280;6597;52.218;9.882;2022-07-23T08:28:26;101052.88;;;22.16;56.25
43770;BME280;6597;52.218;9.882;2022-07-23T08:30:53;101053.13;;;22.13;55.82
43770;BME280;6597;52.218;9.882;2022-07-23T08:33:19;101049.66;;;21.89;56.05
43770;BME280;6597;52.218;9.882;2022-07-23T08:35:48;101047.84;;;22.00;57.09
43770;BME280;6597;52.218;9.882;2022-07-23T08:38:16;101054.44;;;22.30;55.60
43770;BME280;6597;52.218;9.882;2022-07-23T08:40:45;101061.13;;;22.24;54.75
43770;BME280;6597;52.218;9.882;2022-07-23T08:43:15;101062.56;;;22.06;55.06
43770;BME280;6597;52.218;9.882;2022-07-23T08:45:46;101064.66;;;22.25;55.05
43770;BME280;6597;52.218;9.882;2022-07-23T08:48:17;101064.59;;;22.02;51.75
43770;BME280;6597;52.218;9.882;2022-07-23T08:50:46;101072.25;;;21.96;54.48
43770;BME280;6597;52.218;9.882;2022-07-23T08:53:14;101063.69;;;22.26;54.73
43770;BME280;6597;52.218;9.882;2022-07-23T08:55:43;101064.41;;;22.61;52.92
43770;BME280;6597;52.218;9.882;2022-07-23T08:58:10;101062.84;;;23.13;52.22
43770;BME280;6597;52.218;9.882;2022-07-23T09:00:39;101062.59;;;23.69;50.79
43770;BME280;6597;52.218;9.882;2022-07-23T09:03:06;101067.13;;;24.10;48.58
43770;BME280;6597;52.218;9.882;2022-07-23T09:05:32;101066.09;;;23.81;48.19
43770;BME280;6597;52.218;9.882;2022-07-23T09:08:07;101066.81;;;23.83;50.33
43770;BME280;6597;52.218;9.882;2022-07-23T09:10:50;101055.13;;;24.14;49.99
43770;BME280;6597;52.218;9.882;2022-07-23T09:13:32;101062.34;;;24.44;48.09
43770;BME280;6597;52.218;9.882;2022-07-23T09:16:03;101057.56;;;24.27;47.43
43770;BME280;6597;52.218;9.882;2022-07-23T09:18:39;101064.56;;;24.09;47.21
43770;BME280;6597;52.218;9.882;2022-07-23T09:21:17;101058.94;;;24.12;47.25
43770;BME280;6597;52.218;9.882;2022-07-23T09:23:46;101057.34;;;24.30;47.73
43770;BME280;6597;52.218;9.882;2022-07-23T09:26:19;101053.94;;;24.68;45.50
43770;BME280;6597;52.218;9.882;2022-07-23T09:28:56;101067.63;;;24.65;46.08
43770;BME280;6597;52.218;9.882;2022-07-23T09:31:27;101072.03;;;24.36;45.80
43770;BME280;6597;52.218;9.882;2022-07-23T09:34:09;101064.34;;;24.01;45.95
43770;BME280;6597;52.218;9.882;2022-07-23T09:36:37;101070.06;;;24.07;45.84
43770;BME280;6597;52.218;9.882;2022-07-23T09:39:04;101074.19;;;24.11;45.66
43770;BME280;6597;52.218;9.882;2022-07-23T09:41:36;101074.94;;;24.02;45.90
43770;BME280;6597;52.218;9.882;2022-07-23T09:44:11;101073.84;;;23.63;48.05
43770;BME280;6597;52.218;9.882;2022-07-23T09:46:40;101076.91;;;23.26;49.35
43770;BME280;6597;52.218;9.882;2022-07-23T09:49:15;101069.44;;;23.09;49.23
43770;BME280;6597;52.218;9.882;2022-07-23T09:51:51;101072.34;;;23.17;49.43
43770;BME280;6597;52.218;9.882;2022-07-23T09:54:26;101060.72;;;23.60;50.77
43770;BME280;6597;52.218;9.882;2022-07-23T09:56:54;101057.47;;;23.56;48.26
43770;BME280;6597;52.218;9.882;2022-07-23T09:59:24;101056.38;;;23.48;48.23
43770;BME280;6597;52.218;9.882;2022-07-23T10:01:54;101054.44;;;23.92;48.05
43770;BME280;6597;52.218;9.882;2022-07-23T10:04:22;101053.31;;;24.45;46.41
43770;BME280;6597;52.218;9.882;2022-07-23T10:06:56;101052.94;;;24.60;45.81
43770;BME280;6597;52.218;9.882;2022-07-23T10:09:42;101059.19;;;24.79;45.10
43770;BME280;6597;52.218;9.882;2022-07-23T10:12:27;101054.19;;;25.15;44.87
43770;BME280;6597;52.218;9.882;2022-07-23T10:15:12;101059.44;;;25.46;42.80
43770;BME280;6597;52.218;9.882;2022-07-23T10:17:40;101054.13;;;25.92;43.76
43770;BME280;6597;52.218;9.882;2022-07-23T10:20:07;101051.31;;;26.31;43.60
43770;BME280;6597;52.218;9.882;2022-07-23T10:22:35;101055.53;;;26.06;41.16
43770;BME280;6597;52.218;9.882;2022-07-23T10:25:13;101055.59;;;25.58;42.77
43770;BME280;6597;52.218;9.882;2022-07-23T10:27:59;101060.13;;;25.48;44.20
43770;BME280;6597;52.218;9.882;2022-07-23T10:30:36;101054.63;;;25.49;43.34
43770;BME280;6597;52.218;9.882;2022-07-23T10:33:23;101066.94;;;25.42;42.71
43770;BME280;6597;52.218;9.882;2022-07-23T10:35:58;101064.63;;;24.99;43.66
43770;BME280;6597;52.218;9.882;2022-07-23T10:38:30;101061.09;;;24.98;43.77
43770;BME280;6597;52.218;9.882;2022-07-23T10:41:01;101061.78;;;25.00;44.19
43770;BME280;6597;52.218;9.882;2022-07-23T10:43:30;101061.63;;;24.82;43.92
43770;BME280;6597;52.218;9.882;2022-07-23T10:46:22;101070.13;;;24.47;44.76
43770;BME280;6597;52.218;9.882;2022-07-23T10:49:27;101072.44;;;24.71;44.99
43770;BME280;6597;52.218;9.882;2022-07-23T10:52:16;101067.69;;;24.94;43.58
43770;BME280;6597;52.218;9.882;2022-07-23T10:54:45;101058.28;;;24.60;44.25
43770;BME280;6597;52.218;9.882;2022-07-23T10:57:14;101062.06;;;24.47;45.06
43770;BME280;6597;52.218;9.882;2022-07-23T11:00:09;101061.13;;;24.58;44.62
43770;BME280;6597;52.218;9.882;2022-07-23T11:02:38;101059.00;;;25.11;44.60
43770;BME280;6597;52.218;9.882;2022-07-23T11:05:08;101054.47;;;25.51;41.40
43770;BME280;6597;52.218;9.882;2022-07-23T11:07:36;101057.47;;;25.38;42.54
43770;BME280;6597;52.218;9.882;2022-07-23T11:10:04;101054.19;;;25.54;43.08
43770;BME280;6597;52.218;9.882;2022-07-23T11:12:35;101057.13;;;25.89;41.69
43770;BME280;6597;52.218;9.882;2022-07-23T11:15:07;101046.16;;;26.10;40.78
43770;BME280;6597;52.218;9.882;2022-07-23T11:17:36;101054.13;;;26.02;41.47
43770;BME280;6597;52.218;9.882;2022-07-23T11:20:16;101050.22;;;25.67;42.02
43770;BME280;6597;52.218;9.882;2022-07-23T11:22:48;101055.84;;;25.64;42.01
43770;BME280;6597;52.218;9.882;2022-07-23T11:25:30;101054.75;;;25.57;42.76
43770;BME280;6597;52.218;9.882;2022-07-23T11:28:09;101051.91;;;25.01;42.51
43770;BME280;6597;52.218;9.882;2022-07-23T11:30:41;101053.78;;;24.60;43.86
43770;BME280;6597;52.218;9.882;2022-07-23T11:33:20;101061.06;;;24.89;44.02
43770;BME280;6597;52.218;9.882;2022-07-23T11:35:51;101055.53;;;24.90;43.53
43770;BME280;6597;52.218;9.882;2022-07-23T11:38:27;101050.94;;;25.11;44.48
43770;BME280;6597;52.218;9.882;2022-07-23T11:40:55;101037.34;;;25.32;43.50
43770;BME280;6597;52.218;9.882;2022-07-23T11:43:23;101037.19;;;25.63;42.07
43770;BME280;6597;52.218;9.882;2022-07-23T11:45:52;101044.56;;;25.80;42.58
43770;BME280;6597;52.218;9.882;2022-07-23T11:48:21;101044.47;;;26.09;41.77
43770;BME280;6597;52.218;9.882;2022-07-23T11:50:50;101038.19;;;25.81;42.53
43770;BME280;6597;52.218;9.882;2022-07-23T11:53:24;101042.41;;;25.64;41.50
43770;BME280;6597;52.218;9.882;2022-07-23T11:55:52;101048.63;;;25.65;42.33
43770;BME280;6597;52.218;9.882;2022-07-23T11:58:19;101047.25;;;25.80;40.92
43770;BME280;6597;52.218;9.882;2022-07-23T12:00:47;101038.41;;;26.07;41.56
43770;BME280;6597;52.218;9.882;2022-07-23T12:03:16;101046.19;;;26.00;40.29
43770;BME280;6597;52.218;9.882;2022-07-23T12:05:42;101048.63;;;25.65;40.73
43770;BME280;6597;52.218;9.882;2022-07-23T12:08:10;101051.50;;;25.25;42.53
43770;BME280;6597;52.218;9.882;2022-07-23T12:10:38;101048.09;;;25.23;42.43
43770;BME280;6597;52.218;9.882;2022-07-23T12:13:08;101042.88;;;25.50;42.18
43770;BME280;6597;52.218;9.882;2022-07-23T12:15:38;101036.34;;;25.82;42.39
43770;BME280;6597;52.218;9.882;2022-07-23T12:18:07;101041.00;;;25.80;41.56
43770;BME280;6597;52.218;9.882;2022-07-23T12:20:36;101040.88;;;25.52;41.87
43770;BME280;6597;52.218;9.882;2022-07-23T12:23:05;101041.31;;;25.67;41.72
43770;BME280;6597;52.218;9.882;2022-07-23T12:25:34;101043.63;;;26.09;40.92
43770;BME280;6597;52.218;9.882;2022-07-23T12:28:04;101043.53;;;26.38;40.63
43770;BME280;6597;52.218;9.882;2022-07-23T12:30:33;101033.00;;;26.72;39.86
43770;BME280;6597;52.218;9.882;2022-07-23T12:33:03;101040.47;;;26.95;39.65
43770;BME280;6597;52.218;9.882;2022-07-23T12:35:35;101042.69;;;27.10;38.63
43770;BME280;6597;52.218;9.882;2022-07-23T12:38:04;101046.38;;;27.09;38.54
43770;BME280;6597;52.218;9.882;2022-07-23T12:40:35;101042.00;;;27.08;37.96
43770;BME280;6597;52.218;9.882;2022-07-23T12:43:04;101042.09;;;26.88;37.51
43770;BME280;6597;52.218;9.882;2022-07-23T12:45:43;101038.97;;;26.65;38.33
43770;BME280;6597;52.218;9.882;2022-07-23T12:48:16;101047.19;;;26.64;40.09
43770;BME280;6597;52.218;9.882;2022-07-23T12:50:49;101040.28;;;26.61;37.95
43770;BME280;6597;52.218;9.882;2022-07-23T12:53:17;101038.78;;;26.49;39.56
43770;BME280;6597;52.218;9.882;2022-07-23T12:55:46;101050.00;;;26.72;39.33
43770;BME280;6597;52.218;9.882;2022-07-23T12:58:15;101046.06;;;27.12;38.43
43770;BME280;6597;52.218;9.882;2022-07-23T13:01:02;101047.44;;;27.51;37.98
43770;BME280;6597;52.218;9.882;2022-07-23T13:03:32;101050.03;;;27.79;37.58
43770;BME280;6597;52.218;9.882;2022-07-23T13:06:00;101055.69;;;27.94;36.76